Погода Бабекна неделю

Нахичеванский район, Азербайджан

24 - 30 апреля
  • 24апреля
    Сегодня
    +11°
    +26°
    Ясно и безоблачно
    ВремяПогодаТемператураВлажностьДавлениеВетер, м/сВероятность осадков
    01:00Ясно и безоблачно+14°C59 %689 мм3.6 м/с2 %
    04:00Ясно и безоблачно+11°C66 %688 мм3.5 м/с2 %
    07:00Ясно и безоблачно+11°C67 %689 мм3.2 м/с2 %
    10:00Ясно и безоблачно+20°C42 %691 мм2.5 м/с2 %
    13:00Ясно и безоблачно+24°C27 %690 мм2.4 м/с2 %
    16:00Практически безоблачно+26°C21 %688 мм2.3 м/с2 %
    19:00Ясно и безоблачно+23°C33 %687 мм3.5 м/с2 %
    22:00Облачно с прояснениями+18°C47 %687 мм3.8 м/с2 %
  • 25апреля
    Четверг
    +13°
    +29°
    Практически безоблачно
    ВремяПогодаТемператураВлажностьДавлениеВетер, м/сВероятность осадков
    01:00Небольшая облачность+14°C56 %687 мм3.3 м/с2 %
    04:00Ясно и безоблачно+12°C59 %686 мм3.5 м/с2 %
    07:00Ясно и безоблачно+12°C61 %686 мм3.0 м/с2 %
    10:00Ясно и безоблачно+22°C38 %688 мм2.3 м/с2 %
    13:00Практически безоблачно+26°C24 %687 мм2.5 м/с2 %
    16:00Ясно и безоблачно+29°C19 %686 мм2.2 м/с2 %
    19:00Ясно и безоблачно+26°C30 %685 мм3.6 м/с2 %
    22:00Ясно и безоблачно+20°C41 %686 мм4.1 м/с2 %
  • 26апреля
    Пятница
    +13°
    +31°
    Практически безоблачно
    ВремяПогодаТемператураВлажностьДавлениеВетер, м/сВероятность осадков
    01:00Ясно и безоблачно+16°C53 %685 мм3.4 м/с2 %
    04:00Ясно и безоблачно+14°C57 %685 мм3.7 м/с2 %
    07:00Ясно и безоблачно+14°C59 %686 мм3.3 м/с2 %
    10:00Ясно и безоблачно+23°C34 %688 мм2.7 м/с2 %
    13:00Практически безоблачно+28°C22 %687 мм2.4 м/с2 %
    16:00Ясно и безоблачно+30°C17 %686 мм2.5 м/с2 %
    19:00Практически безоблачно+27°C23 %685 мм4.3 м/с2 %
    22:00Ясно и безоблачно+20°C42 %685 мм4.1 м/с2 %
  • 27апреля
    Суббота
    +12°
    +31°
    Ясно и безоблачно
    ВремяПогодаТемператураВлажностьДавлениеВетер, м/сВероятность осадков
    01:00Ясно и безоблачно+17°C54 %685 мм3.5 м/с2 %
    04:00Ясно и безоблачно+14°C56 %685 мм3.8 м/с2 %
    07:00Ясно и безоблачно+15°C57 %686 мм3.4 м/с2 %
    10:00Ясно и безоблачно+23°C32 %689 мм2.9 м/с2 %
    13:00Ясно и безоблачно+28°C20 %689 мм2.7 м/с2 %
    16:00Ясно и безоблачно+30°C15 %688 мм4.0 м/с2 %
    19:00Небольшая облачность+26°C26 %687 мм4.9 м/с2 %
    22:00Практически безоблачно+20°C36 %688 мм4.3 м/с2 %
  • 28апреля
    Воскресенье
    +12°
    +31°
    Ясно и безоблачно
    ВремяПогодаТемператураВлажностьДавлениеВетер, м/сВероятность осадков
    01:00Ясно и безоблачно+16°C41 %688 мм3.6 м/с2 %
    04:00Ясно и безоблачно+14°C44 %688 мм3.8 м/с2 %
    07:00Ясно и безоблачно+14°C47 %689 мм3.5 м/с2 %
    10:00Ясно и безоблачно+23°C27 %692 мм2.8 м/с2 %
    13:00Ясно и безоблачно+28°C17 %691 мм2.6 м/с2 %
    16:00Ясно и безоблачно+31°C12 %690 мм2.7 м/с2 %
    19:00Ясно и безоблачно+27°C17 %688 мм3.9 м/с2 %
    22:00Ясно и безоблачно+20°C34 %689 мм4.0 м/с2 %
Мы используем cookies
Соглашаюсь